Airfield :







YOU CAN JOIN US ON...

 
LOGIN :

Register | Disclaimer

   EN    FR    IT 

 









Legend :    VFR   Marginal VFR   IFR   Intensive IFR   Very Intensive IFR
Visi :
Ceiling :
>= 8 km
>= 3000ft
5 to 8 km
1000 to 3000 ft
1500m to 5 km
500 to 1000 ft
800 to 1500m
200 to 500 ft
< 800m
< 200 ft
Symbols :   Thunderstorms  Fog  Heavy snow  Heavy precipitations  Wind > 20 kt






- Airport Elevation : 103 ft
- IATA code : YQC


CYHA - Quaqtaq

CURRENT METAR :
  • 062000Z 36017KT 15SM -SN DRSN FEW011 BKN037 M09/M15 A2968 RMK SF1SC7 SF TR CVCTV CLD EMBD SLP056

EXPIRED METARs :
  • 061900Z 35016G22KT 15SM -SN DRSN FEW011 BKN033TCU M08/M14 A2967 RMK SF1TCU7 SF TR SLP050
  • 061800Z 36015G20KT 15SM -SN DRSN BKN031TCU M08/M14 A2965 RMK TCU7 SLP045

TAF TAF CYHA
Valid from the 06 at 15:00 until the 06 at 22:00 UTC


061438Z 0615/0622 33012KT P6SM BKN030
TEMPO 0615/0622 4SM -SHSN BKN015
PROB30 0615/0618 3/4SM -SHSN RMK NXT FCST WILL BE ISSUED AT 071445Z



MET'MAP, your aeronautical weather chart ! - Copyright ORBIFLY December 2007 - Disclaimer

ORBIFLY MET'MAP TEAM :

Programming & Development : Alexandra Zaïnal
Concept & original design : Baudouin d'Aumeries
Assistance for programming : Marc-Olivier Méhu
Technical & hardware support : Manuel Goepfert

Contact : metmap@orbifly.com




SOURCES & CREDITS :

   NOAA